Hauptseite
METAR-TAF:

METAR-TAF

Flughäfen :

Chopin-Flughafen Warschau

Warschau, Polen

Breite: 52-10N, Länge: 020-58E, Höhe: 106 m

Beobachtung

Neuester Wetterbericht von vor 23 Minuten, um 08:30 UTC
Wind 9 kt aus Ost/Südost
Temperatur 24°C
Luftfeuchtigkeit 61%
Luftdruck 1019 hPa
Sichtweite 10 km oder mehr
Leicht bewölkt in der Höhe von 3000 ft

METAR: EPWA 170830Z 12009KT 9999 FEW030 24/16 Q1019 NOSIG

Zeit: 10:53 (08:53 UTC)

Prognose

Neuester Wetterbericht von vor 23 Minuten, um 08:30 UTC
Gültige Prognose vom 17 um 09 UTC bis 18 um 09 UTC
Wind 7 kt aus Südost
Sichtweite 10 km oder mehr
keine Wolken unter 1500 m und keine Kumulonimbus oder Gewitterwolken
Wahrscheinlichkeit 30% :
Zeitweise
vom 17 um 11 UTC bis 17 um 16 UTC
Aufgelockert bewölkt in der Höhe von 4500 ft, Towering cumulus.

TAF: EPWA 170830Z 1709/1809 13007KT CAVOK PROB30 TEMPO 1711/1716 SCT045TCU

Wetterbeobachtungen und Prognosen von mehr als 4000 Flughäfen (METAR und TAF Bericht).

Die verfügbaren Stationen werden durch gelbe und rote Markierungen auf der Karte dargestellt.

Führen Sie die Maus auf sie, um den Namen der Station zu sehen.

Darauf klicken, um die Beobachtung von Wetterbeobachtungen und Prognosen zu sehen.

Um die Karte zu ändern : klicken Sie auf den grünen Tasten mit einem schwarzen Kreuz Zum Vergrößern, auf den grünen Button mit einem Gedankenstrich zu verkleinern, oder auf die grünen Pfeile für benachbarte Karten.


METAR-TAF: